sensor_id;sensor_type;location;lat;lon;timestamp;temperature;humidity
30037;DHT22;36325;51.512;-0.382;2023-05-10T00:01:10;12.00;99.90
30037;DHT22;36325;51.512;-0.382;2023-05-10T00:03:38;12.00;99.90
30037;DHT22;36325;51.512;-0.382;2023-05-10T00:06:05;12.00;99.90
30037;DHT22;36325;51.512;-0.382;2023-05-10T00:08:32;12.00;99.90
30037;DHT22;36325;51.512;-0.382;2023-05-10T00:11:00;12.00;99.90
30037;DHT22;36325;51.512;-0.382;2023-05-10T00:13:27;12.00;99.90
30037;DHT22;36325;51.512;-0.382;2023-05-10T00:15:54;12.00;99.90
30037;DHT22;36325;51.512;-0.382;2023-05-10T00:18:21;12.00;99.90
30037;DHT22;36325;51.512;-0.382;2023-05-10T00:20:48;12.00;99.90
30037;DHT22;36325;51.512;-0.382;2023-05-10T00:23:16;12.00;99.90
30037;DHT22;36325;51.512;-0.382;2023-05-10T00:25:43;12.00;99.90
30037;DHT22;36325;51.512;-0.382;2023-05-10T00:28:10;12.00;99.90
30037;DHT22;36325;51.512;-0.382;2023-05-10T00:30:37;12.00;99.90
30037;DHT22;36325;51.512;-0.382;2023-05-10T00:33:05;12.00;99.90
30037;DHT22;36325;51.512;-0.382;2023-05-10T00:35:33;12.00;99.90
30037;DHT22;36325;51.512;-0.382;2023-05-10T00:38:00;12.00;99.90
30037;DHT22;36325;51.512;-0.382;2023-05-10T00:40:28;12.00;99.90
30037;DHT22;36325;51.512;-0.382;2023-05-10T00:42:59;12.00;99.90
30037;DHT22;36325;51.512;-0.382;2023-05-10T00:45:27;12.00;99.90
30037;DHT22;36325;51.512;-0.382;2023-05-10T00:50:23;12.00;99.90
30037;DHT22;36325;51.512;-0.382;2023-05-10T00:52:50;12.00;99.90
30037;DHT22;36325;51.512;-0.382;2023-05-10T00:55:18;12.00;99.90
30037;DHT22;36325;51.512;-0.382;2023-05-10T00:57:45;12.00;99.90
30037;DHT22;36325;51.512;-0.382;2023-05-10T01:00:14;12.00;99.90
30037;DHT22;36325;51.512;-0.382;2023-05-10T01:02:45;12.00;99.90
30037;DHT22;36325;51.512;-0.382;2023-05-10T01:05:13;12.00;99.90
30037;DHT22;36325;51.512;-0.382;2023-05-10T01:07:41;12.00;99.90
30037;DHT22;36325;51.512;-0.382;2023-05-10T01:10:09;12.00;99.90
30037;DHT22;36325;51.512;-0.382;2023-05-10T01:12:40;12.00;99.90
30037;DHT22;36325;51.512;-0.382;2023-05-10T01:15:09;12.00;99.90
30037;DHT22;36325;51.512;-0.382;2023-05-10T01:17:39;11.90;99.90
30037;DHT22;36325;51.512;-0.382;2023-05-10T01:20:07;11.90;99.90
30037;DHT22;36325;51.512;-0.382;2023-05-10T01:31:47;11.90;99.90
30037;DHT22;36325;51.512;-0.382;2023-05-10T01:34:27;11.80;99.90
30037;DHT22;36325;51.512;-0.382;2023-05-10T01:39:47;11.80;99.90
30037;DHT22;36325;51.512;-0.382;2023-05-10T01:42:20;11.80;99.90
30037;DHT22;36325;51.512;-0.382;2023-05-10T01:45:00;11.80;99.90
30037;DHT22;36325;51.512;-0.382;2023-05-10T01:47:37;11.80;99.90
30037;DHT22;36325;51.512;-0.382;2023-05-10T01:50:10;11.80;99.90
30037;DHT22;36325;51.512;-0.382;2023-05-10T01:52:46;11.70;99.90
30037;DHT22;36325;51.512;-0.382;2023-05-10T01:55:15;11.70;99.90
30037;DHT22;36325;51.512;-0.382;2023-05-10T01:57:44;11.70;99.90
30037;DHT22;36325;51.512;-0.382;2023-05-10T02:00:14;11.60;99.90
30037;DHT22;36325;51.512;-0.382;2023-05-10T02:02:45;11.60;99.90
30037;DHT22;36325;51.512;-0.382;2023-05-10T02:05:15;11.50;99.90
30037;DHT22;36325;51.512;-0.382;2023-05-10T02:07:43;11.50;99.90
30037;DHT22;36325;51.512;-0.382;2023-05-10T02:10:13;11.50;99.90
30037;DHT22;36325;51.512;-0.382;2023-05-10T02:12:44;11.50;99.90
30037;DHT22;36325;51.512;-0.382;2023-05-10T02:15:15;11.50;99.90
30037;DHT22;36325;51.512;-0.382;2023-05-10T02:17:43;11.40;99.90
30037;DHT22;36325;51.512;-0.382;2023-05-10T02:20:12;11.40;99.90
30037;DHT22;36325;51.512;-0.382;2023-05-10T02:22:42;11.40;99.90
30037;DHT22;36325;51.512;-0.382;2023-05-10T02:25:11;11.40;99.90
30037;DHT22;36325;51.512;-0.382;2023-05-10T02:27:41;11.40;99.90
30037;DHT22;36325;51.512;-0.382;2023-05-10T02:30:10;11.30;99.90
30037;DHT22;36325;51.512;-0.382;2023-05-10T02:32:39;11.40;99.90
30037;DHT22;36325;51.512;-0.382;2023-05-10T02:35:08;11.40;99.90
30037;DHT22;36325;51.512;-0.382;2023-05-10T02:37:37;11.30;99.90
30037;DHT22;36325;51.512;-0.382;2023-05-10T02:40:06;11.30;99.90
30037;DHT22;36325;51.512;-0.382;2023-05-10T02:42:37;11.30;99.90
30037;DHT22;36325;51.512;-0.382;2023-05-10T02:45:10;11.30;99.90
30037;DHT22;36325;51.512;-0.382;2023-05-10T02:47:39;11.30;99.90
30037;DHT22;36325;51.512;-0.382;2023-05-10T02:50:06;11.30;99.90
30037;DHT22;36325;51.512;-0.382;2023-05-10T02:52:47;11.30;99.90
30037;DHT22;36325;51.512;-0.382;2023-05-10T02:55:20;11.30;99.90
30037;DHT22;36325;51.512;-0.382;2023-05-10T02:57:52;11.30;99.90
30037;DHT22;36325;51.512;-0.382;2023-05-10T03:00:21;13.00;99.90
30037;DHT22;36325;51.512;-0.382;2023-05-10T03:02:48;11.20;99.90
30037;DHT22;36325;51.512;-0.382;2023-05-10T03:05:15;11.20;99.90
30037;DHT22;36325;51.512;-0.382;2023-05-10T03:07:43;11.20;99.90
30037;DHT22;36325;51.512;-0.382;2023-05-10T03:10:11;11.20;99.90
30037;DHT22;36325;51.512;-0.382;2023-05-10T03:12:56;11.10;99.90
30037;DHT22;36325;51.512;-0.382;2023-05-10T03:18:44;11.00;99.90
30037;DHT22;36325;51.512;-0.382;2023-05-10T03:21:17;11.00;99.90
30037;DHT22;36325;51.512;-0.382;2023-05-10T03:26:32;10.90;99.90
30037;DHT22;36325;51.512;-0.382;2023-05-10T03:29:08;10.90;99.90
30037;DHT22;36325;51.512;-0.382;2023-05-10T03:31:38;10.80;99.90
30037;DHT22;36325;51.512;-0.382;2023-05-10T03:34:05;10.80;99.90
30037;DHT22;36325;51.512;-0.382;2023-05-10T03:36:34;10.80;99.90
30037;DHT22;36325;51.512;-0.382;2023-05-10T03:39:01;10.80;99.90
30037;DHT22;36325;51.512;-0.382;2023-05-10T03:41:30;10.80;99.90
30037;DHT22;36325;51.512;-0.382;2023-05-10T03:43:57;10.70;99.90
30037;DHT22;36325;51.512;-0.382;2023-05-10T03:46:24;10.60;99.90
30037;DHT22;36325;51.512;-0.382;2023-05-10T03:48:52;10.60;99.90
30037;DHT22;36325;51.512;-0.382;2023-05-10T03:51:19;10.60;99.90
30037;DHT22;36325;51.512;-0.382;2023-05-10T03:53:47;10.60;99.90
30037;DHT22;36325;51.512;-0.382;2023-05-10T03:56:15;10.50;99.90
30037;DHT22;36325;51.512;-0.382;2023-05-10T03:58:44;10.50;99.90
30037;DHT22;36325;51.512;-0.382;2023-05-10T04:01:11;10.50;99.90
30037;DHT22;36325;51.512;-0.382;2023-05-10T04:03:40;10.50;99.90
30037;DHT22;36325;51.512;-0.382;2023-05-10T04:06:07;8.00;99.90
30037;DHT22;36325;51.512;-0.382;2023-05-10T04:08:37;10.40;99.90
30037;DHT22;36325;51.512;-0.382;2023-05-10T04:11:08;10.40;99.90
30037;DHT22;36325;51.512;-0.382;2023-05-10T04:13:36;10.40;99.90
30037;DHT22;36325;51.512;-0.382;2023-05-10T04:16:04;10.40;99.90
30037;DHT22;36325;51.512;-0.382;2023-05-10T04:18:31;10.30;99.90
30037;DHT22;36325;51.512;-0.382;2023-05-10T04:20:59;10.30;99.90
30037;DHT22;36325;51.512;-0.382;2023-05-10T04:23:29;10.30;99.90
30037;DHT22;36325;51.512;-0.382;2023-05-10T04:26:00;10.30;99.90
30037;DHT22;36325;51.512;-0.382;2023-05-10T04:28:28;10.30;99.90
30037;DHT22;36325;51.512;-0.382;2023-05-10T04:33:30;10.30;99.90
30037;DHT22;36325;51.512;-0.382;2023-05-10T04:35:58;10.30;99.90
30037;DHT22;36325;51.512;-0.382;2023-05-10T04:38:25;10.30;99.90
30037;DHT22;36325;51.512;-0.382;2023-05-10T04:40:54;10.40;99.90
30037;DHT22;36325;51.512;-0.382;2023-05-10T04:43:21;10.40;99.90
30037;DHT22;36325;51.512;-0.382;2023-05-10T04:45:48;10.30;99.90
30037;DHT22;36325;51.512;-0.382;2023-05-10T04:48:17;10.30;99.90
30037;DHT22;36325;51.512;-0.382;2023-05-10T04:50:45;10.30;99.90
30037;DHT22;36325;51.512;-0.382;2023-05-10T04:53:12;10.30;99.90
30037;DHT22;36325;51.512;-0.382;2023-05-10T04:55:41;10.40;99.90
30037;DHT22;36325;51.512;-0.382;2023-05-10T04:58:09;10.40;99.90
30037;DHT22;36325;51.512;-0.382;2023-05-10T05:00:36;10.40;99.90
30037;DHT22;36325;51.512;-0.382;2023-05-10T05:03:04;10.50;99.90
30037;DHT22;36325;51.512;-0.382;2023-05-10T05:05:32;10.50;99.90
30037;DHT22;36325;51.512;-0.382;2023-05-10T05:07:59;10.50;99.90
30037;DHT22;36325;51.512;-0.382;2023-05-10T05:10:26;10.50;99.90
30037;DHT22;36325;51.512;-0.382;2023-05-10T05:12:53;10.50;99.90
30037;DHT22;36325;51.512;-0.382;2023-05-10T05:15:21;10.50;99.90
30037;DHT22;36325;51.512;-0.382;2023-05-10T05:17:48;10.50;99.90
30037;DHT22;36325;51.512;-0.382;2023-05-10T05:20:15;10.60;99.90
30037;DHT22;36325;51.512;-0.382;2023-05-10T05:22:43;10.60;99.90
30037;DHT22;36325;51.512;-0.382;2023-05-10T05:25:11;10.60;99.90
30037;DHT22;36325;51.512;-0.382;2023-05-10T05:27:39;10.70;99.90
30037;DHT22;36325;51.512;-0.382;2023-05-10T05:30:06;10.70;99.90
30037;DHT22;36325;51.512;-0.382;2023-05-10T05:32:34;10.80;99.90
30037;DHT22;36325;51.512;-0.382;2023-05-10T05:35:01;10.90;99.90
30037;DHT22;36325;51.512;-0.382;2023-05-10T05:37:29;10.90;99.90
30037;DHT22;36325;51.512;-0.382;2023-05-10T05:39:56;11.00;99.90
30037;DHT22;36325;51.512;-0.382;2023-05-10T05:42:23;11.10;99.90
30037;DHT22;36325;51.512;-0.382;2023-05-10T05:44:50;11.10;99.90
30037;DHT22;36325;51.512;-0.382;2023-05-10T05:47:18;11.10;99.90
30037;DHT22;36325;51.512;-0.382;2023-05-10T05:49:45;11.20;99.90
30037;DHT22;36325;51.512;-0.382;2023-05-10T05:52:13;11.30;99.90
30037;DHT22;36325;51.512;-0.382;2023-05-10T05:54:40;11.30;99.90
30037;DHT22;36325;51.512;-0.382;2023-05-10T05:57:07;11.30;99.90
30037;DHT22;36325;51.512;-0.382;2023-05-10T05:59:35;11.30;99.90
30037;DHT22;36325;51.512;-0.382;2023-05-10T06:02:02;11.30;99.90
30037;DHT22;36325;51.512;-0.382;2023-05-10T06:04:29;11.30;99.90
30037;DHT22;36325;51.512;-0.382;2023-05-10T06:06:57;11.30;99.90
30037;DHT22;36325;51.512;-0.382;2023-05-10T06:09:24;11.10;99.90
30037;DHT22;36325;51.512;-0.382;2023-05-10T06:11:51;11.30;99.90
30037;DHT22;36325;51.512;-0.382;2023-05-10T06:14:20;11.30;99.90
30037;DHT22;36325;51.512;-0.382;2023-05-10T06:16:48;11.30;99.90
30037;DHT22;36325;51.512;-0.382;2023-05-10T06:19:15;11.30;99.90
30037;DHT22;36325;51.512;-0.382;2023-05-10T06:21:43;11.30;99.90
30037;DHT22;36325;51.512;-0.382;2023-05-10T06:24:10;11.30;99.90
30037;DHT22;36325;51.512;-0.382;2023-05-10T06:26:37;11.30;99.90
30037;DHT22;36325;51.512;-0.382;2023-05-10T06:29:04;11.30;99.90
30037;DHT22;36325;51.512;-0.382;2023-05-10T06:31:31;11.40;99.90
30037;DHT22;36325;51.512;-0.382;2023-05-10T06:33:59;11.50;99.90
30037;DHT22;36325;51.512;-0.382;2023-05-10T06:36:26;11.50;99.90
30037;DHT22;36325;51.512;-0.382;2023-05-10T06:38:56;11.50;99.90
30037;DHT22;36325;51.512;-0.382;2023-05-10T06:41:24;11.50;99.90
30037;DHT22;36325;51.512;-0.382;2023-05-10T06:43:51;11.60;99.90
30037;DHT22;36325;51.512;-0.382;2023-05-10T06:46:18;11.60;99.90
30037;DHT22;36325;51.512;-0.382;2023-05-10T06:48:46;11.70;99.90
30037;DHT22;36325;51.512;-0.382;2023-05-10T06:51:13;11.70;99.90
30037;DHT22;36325;51.512;-0.382;2023-05-10T06:53:41;11.80;99.90
30037;DHT22;36325;51.512;-0.382;2023-05-10T06:56:08;11.80;99.90
30037;DHT22;36325;51.512;-0.382;2023-05-10T06:58:35;11.90;99.90
30037;DHT22;36325;51.512;-0.382;2023-05-10T07:01:04;12.00;99.90
30037;DHT22;36325;51.512;-0.382;2023-05-10T07:03:32;12.00;99.90
30037;DHT22;36325;51.512;-0.382;2023-05-10T07:06:03;12.20;99.90
30037;DHT22;36325;51.512;-0.382;2023-05-10T07:08:31;12.20;99.90
30037;DHT22;36325;51.512;-0.382;2023-05-10T07:11:06;12.30;99.90
30037;DHT22;36325;51.512;-0.382;2023-05-10T07:13:37;12.40;99.90
30037;DHT22;36325;51.512;-0.382;2023-05-10T07:16:06;12.50;99.90
30037;DHT22;36325;51.512;-0.382;2023-05-10T07:18:34;12.60;99.90
30037;DHT22;36325;51.512;-0.382;2023-05-10T07:21:02;12.60;99.90
30037;DHT22;36325;51.512;-0.382;2023-05-10T07:23:30;12.70;99.90
30037;DHT22;36325;51.512;-0.382;2023-05-10T07:25:57;12.80;99.90
30037;DHT22;36325;51.512;-0.382;2023-05-10T07:28:24;12.80;99.90
30037;DHT22;36325;51.512;-0.382;2023-05-10T07:30:52;12.80;99.90
30037;DHT22;36325;51.512;-0.382;2023-05-10T07:35:47;13.00;99.90
30037;DHT22;36325;51.512;-0.382;2023-05-10T07:40:42;13.20;99.90
30037;DHT22;36325;51.512;-0.382;2023-05-10T07:43:10;13.50;99.90
30037;DHT22;36325;51.512;-0.382;2023-05-10T07:45:39;13.50;99.90
30037;DHT22;36325;51.512;-0.382;2023-05-10T07:48:06;13.50;99.90
30037;DHT22;36325;51.512;-0.382;2023-05-10T07:50:33;13.60;99.90
30037;DHT22;36325;51.512;-0.382;2023-05-10T07:53:00;13.60;99.90
30037;DHT22;36325;51.512;-0.382;2023-05-10T07:55:28;13.70;99.90
30037;DHT22;36325;51.512;-0.382;2023-05-10T07:57:55;14.00;99.90
30037;DHT22;36325;51.512;-0.382;2023-05-10T08:00:22;14.30;99.90
30037;DHT22;36325;51.512;-0.382;2023-05-10T08:02:50;14.60;99.90
30037;DHT22;36325;51.512;-0.382;2023-05-10T08:05:17;15.00;99.90
30037;DHT22;36325;51.512;-0.382;2023-05-10T08:07:45;15.20;99.90
30037;DHT22;36325;51.512;-0.382;2023-05-10T08:10:12;15.40;99.90
30037;DHT22;36325;51.512;-0.382;2023-05-10T08:12:40;15.50;99.90
30037;DHT22;36325;51.512;-0.382;2023-05-10T08:15:08;15.40;99.90
30037;DHT22;36325;51.512;-0.382;2023-05-10T08:17:36;15.40;99.90
30037;DHT22;36325;51.512;-0.382;2023-05-10T08:20:03;15.30;99.90
30037;DHT22;36325;51.512;-0.382;2023-05-10T08:22:31;15.50;99.90
30037;DHT22;36325;51.512;-0.382;2023-05-10T08:24:59;15.60;99.90
30037;DHT22;36325;51.512;-0.382;2023-05-10T08:27:27;15.80;99.90
30037;DHT22;36325;51.512;-0.382;2023-05-10T08:29:57;16.10;99.90
30037;DHT22;36325;51.512;-0.382;2023-05-10T08:32:27;16.20;99.90
30037;DHT22;36325;51.512;-0.382;2023-05-10T08:34:55;16.10;99.90
30037;DHT22;36325;51.512;-0.382;2023-05-10T08:37:23;16.10;99.90
30037;DHT22;36325;51.512;-0.382;2023-05-10T08:39:51;16.20;99.90
30037;DHT22;36325;51.512;-0.382;2023-05-10T08:42:19;16.30;99.90
30037;DHT22;36325;51.512;-0.382;2023-05-10T08:44:49;16.80;99.90
30037;DHT22;36325;51.512;-0.382;2023-05-10T08:47:18;16.80;99.90
30037;DHT22;36325;51.512;-0.382;2023-05-10T08:49:47;17.20;99.90
30037;DHT22;36325;51.512;-0.382;2023-05-10T08:52:18;16.70;99.90
30037;DHT22;36325;51.512;-0.382;2023-05-10T08:54:47;16.70;99.90
30037;DHT22;36325;51.512;-0.382;2023-05-10T08:57:14;16.80;99.90
30037;DHT22;36325;51.512;-0.382;2023-05-10T08:59:41;16.60;99.90
30037;DHT22;36325;51.512;-0.382;2023-05-10T09:02:11;16.50;99.90
30037;DHT22;36325;51.512;-0.382;2023-05-10T09:04:38;16.90;99.90
30037;DHT22;36325;51.512;-0.382;2023-05-10T09:07:06;16.90;99.90
30037;DHT22;36325;51.512;-0.382;2023-05-10T09:09:35;17.20;99.90
30037;DHT22;36325;51.512;-0.382;2023-05-10T09:12:02;17.50;99.90
30037;DHT22;36325;51.512;-0.382;2023-05-10T09:14:30;17.80;99.90
30037;DHT22;36325;51.512;-0.382;2023-05-10T09:17:01;18.20;99.90
30037;DHT22;36325;51.512;-0.382;2023-05-10T09:19:29;18.30;99.90
30037;DHT22;36325;51.512;-0.382;2023-05-10T09:21:56;21.80;99.90
30037;DHT22;36325;51.512;-0.382;2023-05-10T09:24:28;18.60;99.90
30037;DHT22;36325;51.512;-0.382;2023-05-10T09:26:57;18.90;99.90
30037;DHT22;36325;51.512;-0.382;2023-05-10T09:29:42;18.90;99.90
30037;DHT22;36325;51.512;-0.382;2023-05-10T09:32:09;19.10;99.90
30037;DHT22;36325;51.512;-0.382;2023-05-10T09:34:36;19.30;99.90
30037;DHT22;36325;51.512;-0.382;2023-05-10T09:37:06;19.30;99.90
30037;DHT22;36325;51.512;-0.382;2023-05-10T09:39:36;19.10;99.90
30037;DHT22;36325;51.512;-0.382;2023-05-10T09:42:05;18.90;99.90
30037;DHT22;36325;51.512;-0.382;2023-05-10T09:44:33;19.00;99.90
30037;DHT22;36325;51.512;-0.382;2023-05-10T09:47:01;19.40;99.90
30037;DHT22;36325;51.512;-0.382;2023-05-10T09:49:29;19.80;99.90
30037;DHT22;36325;51.512;-0.382;2023-05-10T09:52:04;19.60;99.90
30037;DHT22;36325;51.512;-0.382;2023-05-10T09:54:32;20.00;99.90
30037;DHT22;36325;51.512;-0.382;2023-05-10T09:57:00;19.90;99.90
30037;DHT22;36325;51.512;-0.382;2023-05-10T09:59:28;19.90;99.90
30037;DHT22;36325;51.512;-0.382;2023-05-10T10:01:57;20.10;99.90
30037;DHT22;36325;51.512;-0.382;2023-05-10T10:04:25;20.40;99.90
30037;DHT22;36325;51.512;-0.382;2023-05-10T10:07:03;20.50;99.90
30037;DHT22;36325;51.512;-0.382;2023-05-10T10:09:32;20.60;99.90
30037;DHT22;36325;51.512;-0.382;2023-05-10T10:12:00;20.60;99.90
30037;DHT22;36325;51.512;-0.382;2023-05-10T10:14:28;20.80;99.90
30037;DHT22;36325;51.512;-0.382;2023-05-10T10:16:56;21.30;99.90
30037;DHT22;36325;51.512;-0.382;2023-05-10T10:19:36;21.40;99.90
30037;DHT22;36325;51.512;-0.382;2023-05-10T10:22:04;21.40;99.90
30037;DHT22;36325;51.512;-0.382;2023-05-10T10:24:33;21.80;99.90
30037;DHT22;36325;51.512;-0.382;2023-05-10T10:27:12;22.20;99.90
30037;DHT22;36325;51.512;-0.382;2023-05-10T10:35:46;22.90;99.90
30037;DHT22;36325;51.512;-0.382;2023-05-10T10:38:13;23.50;99.90
30037;DHT22;36325;51.512;-0.382;2023-05-10T10:40:41;23.40;99.90
30037;DHT22;36325;51.512;-0.382;2023-05-10T10:43:27;23.10;99.90
30037;DHT22;36325;51.512;-0.382;2023-05-10T10:46:16;22.90;99.90
30037;DHT22;36325;51.512;-0.382;2023-05-10T10:49:08;23.00;99.90
30037;DHT22;36325;51.512;-0.382;2023-05-10T10:51:38;22.30;99.90
30037;DHT22;36325;51.512;-0.382;2023-05-10T10:54:10;21.90;99.90
30037;DHT22;36325;51.512;-0.382;2023-05-10T10:56:37;21.80;99.90
30037;DHT22;36325;51.512;-0.382;2023-05-10T10:59:05;22.10;99.90
30037;DHT22;36325;51.512;-0.382;2023-05-10T11:01:33;21.90;99.90
30037;DHT22;36325;51.512;-0.382;2023-05-10T11:06:32;21.10;99.90
30037;DHT22;36325;51.512;-0.382;2023-05-10T11:09:07;20.80;99.90
30037;DHT22;36325;51.512;-0.382;2023-05-10T11:11:36;20.50;99.90
30037;DHT22;36325;51.512;-0.382;2023-05-10T11:14:05;20.40;99.90
30037;DHT22;36325;51.512;-0.382;2023-05-10T11:16:43;20.00;99.90
30037;DHT22;36325;51.512;-0.382;2023-05-10T11:19:13;19.90;99.90
30037;DHT22;36325;51.512;-0.382;2023-05-10T11:21:49;20.00;99.90
30037;DHT22;36325;51.512;-0.382;2023-05-10T11:24:22;20.10;99.90
30037;DHT22;36325;51.512;-0.382;2023-05-10T11:26:50;20.40;99.90
30037;DHT22;36325;51.512;-0.382;2023-05-10T11:29:20;20.80;99.90
30037;DHT22;36325;51.512;-0.382;2023-05-10T11:31:49;21.10;99.90
30037;DHT22;36325;51.512;-0.382;2023-05-10T11:34:30;21.10;99.90
30037;DHT22;36325;51.512;-0.382;2023-05-10T11:36:58;21.10;99.90
30037;DHT22;36325;51.512;-0.382;2023-05-10T11:39:27;21.00;99.90
30037;DHT22;36325;51.512;-0.382;2023-05-10T11:41:54;20.70;99.90
30037;DHT22;36325;51.512;-0.382;2023-05-10T11:44:23;20.20;99.90
30037;DHT22;36325;51.512;-0.382;2023-05-10T11:46:50;19.80;99.90
30037;DHT22;36325;51.512;-0.382;2023-05-10T11:49:17;19.40;99.90
30037;DHT22;36325;51.512;-0.382;2023-05-10T11:51:45;18.90;99.90
30037;DHT22;36325;51.512;-0.382;2023-05-10T11:54:13;18.80;99.90
30037;DHT22;36325;51.512;-0.382;2023-05-10T11:56:41;18.80;99.90
30037;DHT22;36325;51.512;-0.382;2023-05-10T11:59:08;18.90;99.90
30037;DHT22;36325;51.512;-0.382;2023-05-10T12:01:36;19.10;99.90
30037;DHT22;36325;51.512;-0.382;2023-05-10T12:04:04;19.40;99.90
30037;DHT22;36325;51.512;-0.382;2023-05-10T12:06:37;19.80;99.90
30037;DHT22;36325;51.512;-0.382;2023-05-10T12:09:07;20.30;99.90
30037;DHT22;36325;51.512;-0.382;2023-05-10T12:11:39;21.00;99.90
30037;DHT22;36325;51.512;-0.382;2023-05-10T12:14:09;22.30;99.90
30037;DHT22;36325;51.512;-0.382;2023-05-10T12:16:37;23.70;99.90
30037;DHT22;36325;51.512;-0.382;2023-05-10T12:19:04;24.40;99.90
30037;DHT22;36325;51.512;-0.382;2023-05-10T12:21:32;24.70;99.90
30037;DHT22;36325;51.512;-0.382;2023-05-10T12:24:02;25.30;99.90
30037;DHT22;36325;51.512;-0.382;2023-05-10T12:26:30;25.70;99.90
30037;DHT22;36325;51.512;-0.382;2023-05-10T12:29:13;26.10;99.90
30037;DHT22;36325;51.512;-0.382;2023-05-10T12:31:54;26.30;99.90
30037;DHT22;36325;51.512;-0.382;2023-05-10T12:34:33;26.00;99.90
30037;DHT22;36325;51.512;-0.382;2023-05-10T12:37:01;24.90;99.90
30037;DHT22;36325;51.512;-0.382;2023-05-10T12:39:43;24.10;99.90
30037;DHT22;36325;51.512;-0.382;2023-05-10T12:42:11;23.60;99.90
30037;DHT22;36325;51.512;-0.382;2023-05-10T12:44:39;23.70;99.90
30037;DHT22;36325;51.512;-0.382;2023-05-10T12:47:07;23.90;99.90
30037;DHT22;36325;51.512;-0.382;2023-05-10T12:49:34;23.70;99.90
30037;DHT22;36325;51.512;-0.382;2023-05-10T12:52:01;23.20;99.90
30037;DHT22;36325;51.512;-0.382;2023-05-10T12:54:28;22.60;99.90
30037;DHT22;36325;51.512;-0.382;2023-05-10T12:56:56;22.10;99.90
30037;DHT22;36325;51.512;-0.382;2023-05-10T12:59:23;21.60;99.90
30037;DHT22;36325;51.512;-0.382;2023-05-10T13:01:50;21.20;99.90
30037;DHT22;36325;51.512;-0.382;2023-05-10T13:04:18;20.50;99.90
30037;DHT22;36325;51.512;-0.382;2023-05-10T13:06:45;20.40;99.90
30037;DHT22;36325;51.512;-0.382;2023-05-10T13:09:12;19.70;99.90
30037;DHT22;36325;51.512;-0.382;2023-05-10T13:11:40;19.00;99.90
30037;DHT22;36325;51.512;-0.382;2023-05-10T13:16:35;17.70;99.90
30037;DHT22;36325;51.512;-0.382;2023-05-10T13:19:02;17.10;99.90
30037;DHT22;36325;51.512;-0.382;2023-05-10T13:21:29;16.50;99.90
30037;DHT22;36325;51.512;-0.382;2023-05-10T13:23:57;16.10;99.90
30037;DHT22;36325;51.512;-0.382;2023-05-10T13:26:25;15.80;99.90
30037;DHT22;36325;51.512;-0.382;2023-05-10T13:28:53;15.60;99.90
30037;DHT22;36325;51.512;-0.382;2023-05-10T13:31:22;15.50;99.90
30037;DHT22;36325;51.512;-0.382;2023-05-10T13:33:49;15.70;99.90
30037;DHT22;36325;51.512;-0.382;2023-05-10T13:36:16;15.70;99.90
30037;DHT22;36325;51.512;-0.382;2023-05-10T13:38:43;16.60;99.90
30037;DHT22;36325;51.512;-0.382;2023-05-10T13:41:10;18.80;99.90
30037;DHT22;36325;51.512;-0.382;2023-05-10T13:43:37;19.40;99.90
30037;DHT22;36325;51.512;-0.382;2023-05-10T13:46:05;20.70;99.90
30037;DHT22;36325;51.512;-0.382;2023-05-10T13:48:32;22.00;99.90
30037;DHT22;36325;51.512;-0.382;2023-05-10T13:50:59;23.10;99.90
30037;DHT22;36325;51.512;-0.382;2023-05-10T13:53:26;24.00;99.90
30037;DHT22;36325;51.512;-0.382;2023-05-10T13:55:54;23.70;99.90
30037;DHT22;36325;51.512;-0.382;2023-05-10T13:58:21;23.60;99.90
30037;DHT22;36325;51.512;-0.382;2023-05-10T14:00:48;24.40;99.90
30037;DHT22;36325;51.512;-0.382;2023-05-10T14:03:15;25.40;99.90
30037;DHT22;36325;51.512;-0.382;2023-05-10T14:05:44;25.30;99.90
30037;DHT22;36325;51.512;-0.382;2023-05-10T14:08:12;24.30;99.90
30037;DHT22;36325;51.512;-0.382;2023-05-10T14:10:40;23.70;99.90
30037;DHT22;36325;51.512;-0.382;2023-05-10T14:13:07;24.10;99.90
30037;DHT22;36325;51.512;-0.382;2023-05-10T14:15:34;24.30;99.90
30037;DHT22;36325;51.512;-0.382;2023-05-10T14:18:02;23.30;99.90
30037;DHT22;36325;51.512;-0.382;2023-05-10T14:20:29;22.10;99.90
30037;DHT22;36325;51.512;-0.382;2023-05-10T14:22:56;21.20;99.90
30037;DHT22;36325;51.512;-0.382;2023-05-10T14:25:24;20.40;99.90
30037;DHT22;36325;51.512;-0.382;2023-05-10T14:27:51;19.40;99.90
30037;DHT22;36325;51.512;-0.382;2023-05-10T14:30:21;19.40;99.90
30037;DHT22;36325;51.512;-0.382;2023-05-10T14:32:48;19.20;99.90
30037;DHT22;36325;51.512;-0.382;2023-05-10T14:35:16;19.00;99.90
30037;DHT22;36325;51.512;-0.382;2023-05-10T14:37:45;19.10;99.90
30037;DHT22;36325;51.512;-0.382;2023-05-10T14:40:12;20.00;99.90
30037;DHT22;36325;51.512;-0.382;2023-05-10T14:42:42;21.10;99.90
30037;DHT22;36325;51.512;-0.382;2023-05-10T14:45:10;21.90;99.90
30037;DHT22;36325;51.512;-0.382;2023-05-10T14:47:38;22.40;99.90
30037;DHT22;36325;51.512;-0.382;2023-05-10T14:50:06;22.70;99.90
30037;DHT22;36325;51.512;-0.382;2023-05-10T14:52:34;22.90;99.90
30037;DHT22;36325;51.512;-0.382;2023-05-10T14:55:02;23.90;99.90
30037;DHT22;36325;51.512;-0.382;2023-05-10T14:57:29;25.20;99.90
30037;DHT22;36325;51.512;-0.382;2023-05-10T14:59:57;25.90;99.90
30037;DHT22;36325;51.512;-0.382;2023-05-10T15:02:24;26.10;99.90
30037;DHT22;36325;51.512;-0.382;2023-05-10T15:04:52;25.80;99.90
30037;DHT22;36325;51.512;-0.382;2023-05-10T15:07:19;25.40;99.90
30037;DHT22;36325;51.512;-0.382;2023-05-10T15:09:46;25.20;99.90
30037;DHT22;36325;51.512;-0.382;2023-05-10T15:12:14;25.10;99.90
30037;DHT22;36325;51.512;-0.382;2023-05-10T15:14:41;24.90;99.90
30037;DHT22;36325;51.512;-0.382;2023-05-10T15:17:08;25.00;99.90
30037;DHT22;36325;51.512;-0.382;2023-05-10T15:19:35;24.60;99.90
30037;DHT22;36325;51.512;-0.382;2023-05-10T15:22:04;24.40;99.90
30037;DHT22;36325;51.512;-0.382;2023-05-10T15:24:31;24.20;99.90
30037;DHT22;36325;51.512;-0.382;2023-05-10T15:26:58;23.70;99.90
30037;DHT22;36325;51.512;-0.382;2023-05-10T15:29:26;24.00;99.90
30037;DHT22;36325;51.512;-0.382;2023-05-10T15:31:54;23.70;99.90
30037;DHT22;36325;51.512;-0.382;2023-05-10T15:34:21;23.40;99.90
30037;DHT22;36325;51.512;-0.382;2023-05-10T15:36:48;23.20;99.90
30037;DHT22;36325;51.512;-0.382;2023-05-10T15:39:15;23.00;99.90
30037;DHT22;36325;51.512;-0.382;2023-05-10T15:41:42;22.80;99.90
30037;DHT22;36325;51.512;-0.382;2023-05-10T15:44:09;23.10;99.90
30037;DHT22;36325;51.512;-0.382;2023-05-10T15:46:38;24.20;99.90
30037;DHT22;36325;51.512;-0.382;2023-05-10T15:49:05;23.10;99.90
30037;DHT22;36325;51.512;-0.382;2023-05-10T15:51:33;24.60;99.90
30037;DHT22;36325;51.512;-0.382;2023-05-10T15:54:02;23.30;99.90
30037;DHT22;36325;51.512;-0.382;2023-05-10T15:56:33;22.80;99.90
30037;DHT22;36325;51.512;-0.382;2023-05-10T15:59:01;23.40;99.90
30037;DHT22;36325;51.512;-0.382;2023-05-10T16:01:30;23.90;99.90
30037;DHT22;36325;51.512;-0.382;2023-05-10T16:03:59;25.30;99.90